Time;durP1;ratioP1;P1;durP2;ratioP2;P2;SDS_P1;SDS_P2;PMS_P1;PMS_P2;Temp;Humidity;BMP_temperature;BMP_pressure;BME280_temperature;BME280_humidity;BME280_pressure;Samples;Min_cycle;Max_cycle;Signal;HPM_P1;HPM_P2
2022/01/30 00:00:41;;;;;;;;;;;;;;;-139.48;100.00;61774.03;5016327;28;19968;-72
2022/01/30 00:03:25;;;;;;;;;;;;;;;-139.48;100.00;61774.03;5015322;28;19924;-71
2022/01/30 00:06:09;;;;;;;;;;;;;;;-139.48;100.00;61774.03;5016311;28;19932;-71
2022/01/30 00:08:53;;;;;;;;;;;;;;;-139.48;100.00;61774.03;5016912;28;19944;-71
2022/01/30 00:11:40;;;;;;;;;;;;;;;-139.48;100.00;61774.03;5015253;28;19933;-70
2022/01/30 00:14:26;;;;;;;;;;;;;;;-139.48;100.00;61774.03;5016213;28;19970;-70
2022/01/30 00:17:20;;;;;;;;;;;;;;;-139.48;100.00;61774.03;5001836;28;19975;-71
2022/01/30 00:20:05;;;;;;;;;;;;;;;-139.48;100.00;61774.03;5015967;28;19940;-72
2022/01/30 00:23:09;;;;;;;;;;;;;;;-139.48;100.00;61774.03;5014910;28;19924;-70
2022/01/30 00:25:55;;;;;;;;;;;;;;;-139.48;100.00;61774.03;5016146;28;20039;-71
2022/01/30 00:28:40;;;;;;;;;;;;;;;-139.48;100.00;61774.03;5016248;28;19925;-70
2022/01/30 00:31:26;;;;;;;;;;;;;;;-139.48;100.00;61774.03;5015429;28;20032;-71
2022/01/30 00:34:10;;;;;;;;;;;;;;;-139.48;100.00;61774.03;5015974;28;19963;-71
2022/01/30 00:36:53;;;;;;;;;;;;;;;-139.48;100.00;61774.03;5015918;28;19928;-70
2022/01/30 00:39:37;;;;;;;;;;;;;;;-139.48;100.00;61774.03;5014337;28;19928;-71
2022/01/30 00:42:22;;;;;;;;;;;;;;;-139.48;100.00;61774.03;5015839;28;19924;-71
2022/01/30 00:45:06;;;;;;;;;;;;;;;-139.48;100.00;61774.03;5014818;28;19936;-71
2022/01/30 00:47:50;;;;;;;;;;;;;;;-139.48;100.00;61774.03;5015488;28;19925;-71
2022/01/30 00:50:34;;;;;;;;;;;;;;;-139.48;100.00;61774.03;5015722;28;20293;-71
2022/01/30 00:53:18;;;;;;;;;;;;;;;-139.48;100.00;61774.03;5000579;28;20343;-71
2022/01/30 00:56:02;;;;;;;;;;;;;;;-139.48;100.00;61774.03;5015629;28;19924;-71
2022/01/30 00:58:46;;;;;;;;;;;;;;;-139.48;100.00;61774.03;5000518;28;19925;-71
2022/01/30 01:01:32;;;;;;;;;;;;;;;-139.48;100.00;61774.03;5014442;28;20012;-70
2022/01/30 01:04:17;;;;;;;;;;;;;;;-139.48;100.00;61774.03;5015222;28;20508;-71
2022/01/30 01:07:01;;;;;;;;;;;;;;;-139.48;100.00;61774.03;5015597;28;20281;-71
2022/01/30 01:09:56;;;;;;;;;;;;;;;-139.48;100.00;61774.03;5015214;28;20353;-71
2022/01/30 01:24:16;;;;;;;;;;;;;;;-139.48;100.00;61774.03;5014321;28;19924;-70
2022/01/30 01:27:00;;;;;;;;;;;;;;;-139.48;100.00;61774.03;5014820;28;19940;-71
2022/01/30 01:29:44;;;;;;;;;;;;;;;-139.48;100.00;61774.03;5014729;28;19971;-71
2022/01/30 01:32:28;;;;;;;;;;;;;;;-139.48;100.00;61774.03;5013474;28;19940;-71
2022/01/30 01:35:11;;;;;;;;;;;;;;;-139.48;100.00;61774.03;5014860;28;20075;-71
2022/01/30 01:37:55;;;;;;;;;;;;;;;-139.48;100.00;61774.03;5014771;28;20020;-71
2022/01/30 01:40:40;;;;;;;;;;;;;;;-139.48;100.00;61774.03;4999850;28;20028;-71
2022/01/30 01:43:25;;;;;;;;;;;;;;;-139.48;100.00;61774.03;4999631;28;19941;-70
2022/01/30 01:46:15;;;;;;;;;;;;;;;-139.48;100.00;61774.03;5013457;28;19963;-71
2022/01/30 01:48:59;;;;;;;;;;;;;;;-139.48;100.00;61774.03;5014485;28;19964;-71
2022/01/30 01:51:48;;;;;;;;;;;;;;;-139.48;100.00;61774.03;5013567;28;19925;-70
2022/01/30 01:54:32;;;;;;;;;;;;;;;-139.48;100.00;61774.03;5014275;28;19925;-71
2022/01/30 01:57:16;;;;;;;;;;;;;;;-139.48;100.00;61774.03;4999685;28;20448;-70
2022/01/30 02:00:00;;;;;;;;;;;;;;;-139.48;100.00;61774.03;5013096;28;19975;-71
2022/01/30 02:02:44;;;;;;;;;;;;;;;-139.48;100.00;61774.03;5013097;28;19972;-71
2022/01/30 02:05:31;;;;;;;;;;;;;;;-139.48;100.00;61774.03;5014049;28;19923;-71
2022/01/30 02:11:39;;;;;;;;;;;;;;;-139.48;100.00;61774.03;4980377;28;19925;-69
2022/01/30 02:14:34;;;;;;;;;;;;;;;-139.48;100.00;61774.03;5013282;28;19995;-71
2022/01/30 02:26:27;;;;;;;;;;;;;;;-139.48;100.00;61774.03;5013166;28;19980;-71
2022/01/30 02:29:11;;;;;;;;;;;;;;;-139.48;100.00;61774.03;5013656;28;20008;-71
2022/01/30 02:31:58;;;;;;;;;;;;;;;-139.48;100.00;61774.03;5012644;28;19928;-71
2022/01/30 02:34:42;;;;;;;;;;;;;;;-139.48;100.00;61774.03;5012899;28;19925;-72
2022/01/30 02:37:26;;;;;;;;;;;;;;;-139.48;100.00;61774.03;4998831;28;19984;-71
2022/01/30 02:40:12;;;;;;;;;;;;;;;-139.48;100.00;61774.03;5013311;28;19929;-71
2022/01/30 02:42:56;;;;;;;;;;;;;;;-139.48;100.00;61774.03;5013500;28;19926;-71
2022/01/30 02:45:47;;;;;;;;;;;;;;;-139.48;100.00;61774.03;5012825;28;19947;-71
2022/01/30 02:49:13;;;;;;;;;;;;;;;-139.48;100.00;61774.03;5013386;28;19924;-71
2022/01/30 02:51:57;;;;;;;;;;;;;;;-139.48;100.00;61774.03;5013162;28;19967;-71
2022/01/30 02:54:41;;;;;;;;;;;;;;;-139.48;100.00;61774.03;5000160;28;19925;-71
2022/01/30 02:57:25;;;;;;;;;;;;;;;-139.48;100.00;61774.03;5012629;28;19985;-71
2022/01/30 03:00:10;;;;;;;;;;;;;;;-139.48;100.00;61774.03;5012112;28;19971;-71
2022/01/30 03:02:54;;;;;;;;;;;;;;;-139.48;100.00;61774.03;5013400;28;19976;-71
2022/01/30 03:05:37;;;;;;;;;;;;;;;-139.48;100.00;61774.03;5012266;28;20036;-70
2022/01/30 03:08:21;;;;;;;;;;;;;;;-139.48;100.00;61774.03;5013376;28;19924;-71
2022/01/30 03:11:05;;;;;;;;;;;;;;;-139.48;100.00;61774.03;4998646;28;19920;-71
2022/01/30 03:13:49;;;;;;;;;;;;;;;-139.48;100.00;61774.03;4998309;28;19925;-71
2022/01/30 03:16:33;;;;;;;;;;;;;;;-139.48;100.00;61774.03;5012176;28;19924;-71
2022/01/30 03:19:17;;;;;;;;;;;;;;;-139.48;100.00;61774.03;5012230;28;19927;-71
2022/01/30 03:22:01;;;;;;;;;;;;;;;-139.48;100.00;61774.03;5013214;28;20290;-71
2022/01/30 03:24:45;;;;;;;;;;;;;;;-139.48;100.00;61774.03;5012371;28;20281;-71
2022/01/30 03:27:29;;;;;;;;;;;;;;;-139.48;100.00;61774.03;5013275;28;19924;-71
2022/01/30 03:30:13;;;;;;;;;;;;;;;-139.48;100.00;61774.03;5012285;28;19964;-71
2022/01/30 03:32:57;;;;;;;;;;;;;;;-139.48;100.00;61774.03;5013058;28;20059;-71
2022/01/30 03:35:41;;;;;;;;;;;;;;;-139.48;100.00;61774.03;4998208;28;20393;-71
2022/01/30 03:38:25;;;;;;;;;;;;;;;-139.48;100.00;61774.03;5012078;28;19945;-71
2022/01/30 03:41:09;;;;;;;;;;;;;;;-139.48;100.00;61774.03;5012091;28;19924;-71
2022/01/30 03:43:53;;;;;;;;;;;;;;;-139.48;100.00;61774.03;4998142;28;19992;-69
2022/01/30 03:46:37;;;;;;;;;;;;;;;-139.48;100.00;61774.03;5013118;28;19971;-71
2022/01/30 03:49:21;;;;;;;;;;;;;;;-139.48;100.00;61774.03;5012997;28;20052;-71
2022/01/30 03:52:06;;;;;;;;;;;;;;;-139.48;100.00;61774.03;5012058;28;20245;-71
2022/01/30 03:54:50;;;;;;;;;;;;;;;-139.48;100.00;61774.03;5013017;28;19924;-71
2022/01/30 03:57:33;;;;;;;;;;;;;;;-139.48;100.00;61774.03;5014772;28;19971;-71
2022/01/30 04:00:17;;;;;;;;;;;;;;;-139.48;100.00;61774.03;5001650;28;19931;-71
2022/01/30 04:03:01;;;;;;;;;;;;;;;-139.48;100.00;61774.03;5015650;28;20032;-71
2022/01/30 04:05:45;;;;;;;;;;;;;;;-139.48;100.00;61774.03;5020121;28;19924;-71
2022/01/30 04:08:29;;;;;;;;;;;;;;;-139.48;100.00;61774.03;5022396;28;20003;-72
2022/01/30 04:11:13;;;;;;;;;;;;;;;-139.48;100.00;61774.03;5019137;28;20027;-72
2022/01/30 04:13:57;;;;;;;;;;;;;;;-139.48;100.00;61774.03;5016462;28;19928;-72
2022/01/30 04:16:41;;;;;;;;;;;;;;;-139.48;100.00;61774.03;5015397;28;19925;-72
2022/01/30 04:19:25;;;;;;;;;;;;;;;-139.48;100.00;61774.03;5015054;28;19928;-72
2022/01/30 04:22:08;;;;;;;;;;;;;;;-139.48;100.00;61774.03;5015182;28;19928;-71
2022/01/30 04:24:52;;;;;;;;;;;;;;;-139.48;100.00;61774.03;5016002;28;19925;-71
2022/01/30 04:27:36;;;;;;;;;;;;;;;-139.48;100.00;61774.03;5001542;28;19968;-71
2022/01/30 04:30:21;;;;;;;;;;;;;;;-139.48;100.00;61774.03;5016065;28;19981;-72
2022/01/30 04:33:05;;;;;;;;;;;;;;;-139.48;100.00;61774.03;5016627;28;19924;-71
2022/01/30 04:35:49;;;;;;;;;;;;;;;-139.48;100.00;61774.03;5015031;28;19991;-71
2022/01/30 04:38:50;;;;;;;;;;;;;;;-139.48;100.00;61774.03;5015653;28;20020;-71
2022/01/30 05:08:27;;;;;;;;;;;;;;;-139.48;100.00;61774.03;5014402;28;19928;-72
2022/01/30 05:11:11;;;;;;;;;;;;;;;-139.48;100.00;61774.03;5015205;28;19928;-72
2022/01/30 05:13:55;;;;;;;;;;;;;;;-139.48;100.00;61774.03;5014279;28;19939;-71
2022/01/30 05:16:39;;;;;;;;;;;;;;;-139.48;100.00;61774.03;5015510;28;19967;-71
2022/01/30 05:19:23;;;;;;;;;;;;;;;-139.48;100.00;61774.03;5014956;28;20423;-72
2022/01/30 05:22:07;;;;;;;;;;;;;;;-139.48;100.00;61774.03;5015164;28;20024;-70
2022/01/30 05:24:51;;;;;;;;;;;;;;;-139.48;100.00;61774.03;5000086;28;19928;-71
2022/01/30 05:27:35;;;;;;;;;;;;;;;-139.48;100.00;61774.03;5015152;28;19985;-71
2022/01/30 05:30:19;;;;;;;;;;;;;;;-139.48;100.00;61774.03;5013692;28;19929;-71
2022/01/30 05:33:03;;;;;;;;;;;;;;;-139.48;100.00;61774.03;5014251;28;19923;-71
2022/01/30 05:35:47;;;;;;;;;;;;;;;-139.48;100.00;61774.03;5014233;28;19940;-72
2022/01/30 05:38:31;;;;;;;;;;;;;;;-139.48;100.00;61774.03;5014520;28;19924;-72
2022/01/30 05:41:15;;;;;;;;;;;;;;;-139.48;100.00;61774.03;5014790;28;20285;-72
2022/01/30 05:46:51;;;;;;;;;;;;;;;-139.48;100.00;61774.03;4955060;29;19934;-74
2022/01/30 05:49:36;;;;;;;;;;;;;;;-139.48;100.00;61774.03;4955124;29;19929;-71
2022/01/30 05:52:22;;;;;;;;;;;;;;;-139.48;100.00;61774.03;4941999;29;19969;-72
2022/01/30 05:55:06;;;;;;;;;;;;;;;-139.48;100.00;61774.03;4956076;29;19977;-74
2022/01/30 05:57:49;;;;;;;;;;;;;;;-139.48;100.00;61774.03;4956024;29;19965;-74
2022/01/30 06:00:33;;;;;;;;;;;;;;;-139.48;100.00;61774.03;4955840;29;19934;-74
2022/01/30 06:03:17;;;;;;;;;;;;;;;-139.48;100.00;61774.03;4955868;29;19973;-74
2022/01/30 06:06:01;;;;;;;;;;;;;;;-139.48;100.00;61774.03;4956067;29;19926;-71
2022/01/30 06:08:57;;;;;;;;;;;;;;;-139.48;100.00;61774.03;4956218;29;20030;-73
2022/01/30 06:11:41;;;;;;;;;;;;;;;-139.48;100.00;61774.03;4955973;29;19940;-72
2022/01/30 06:14:25;;;;;;;;;;;;;;;-139.48;100.00;61774.03;4955696;29;19926;-73
2022/01/30 06:17:09;;;;;;;;;;;;;;;-139.48;100.00;61774.03;4955156;29;20005;-74
2022/01/30 06:19:53;;;;;;;;;;;;;;;-139.48;100.00;61774.03;4955597;28;19945;-74
2022/01/30 06:22:37;;;;;;;;;;;;;;;-139.48;100.00;61774.03;4955012;29;19925;-72
2022/01/30 06:25:21;;;;;;;;;;;;;;;-139.48;100.00;61774.03;4954628;29;20009;-73
2022/01/30 06:28:05;;;;;;;;;;;;;;;-139.48;100.00;61774.03;4956019;29;19929;-73
2022/01/30 06:30:49;;;;;;;;;;;;;;;-139.48;100.00;61774.03;4954681;29;20006;-74
2022/01/30 06:33:33;;;;;;;;;;;;;;;-139.48;100.00;61774.03;4954659;29;19993;-74
2022/01/30 06:36:17;;;;;;;;;;;;;;;-139.48;100.00;61774.03;4955271;29;19972;-72
2022/01/30 06:39:01;;;;;;;;;;;;;;;-139.48;100.00;61774.03;4954708;29;19950;-73
2022/01/30 06:41:45;;;;;;;;;;;;;;;-139.48;100.00;61774.03;4954491;29;19929;-74
2022/01/30 06:44:28;;;;;;;;;;;;;;;-139.48;100.00;61774.03;4940715;29;19941;-74
2022/01/30 06:47:12;;;;;;;;;;;;;;;-139.48;100.00;61774.03;4954451;29;20322;-74
2022/01/30 06:49:56;;;;;;;;;;;;;;;-139.48;100.00;61774.03;4954497;29;19965;-73
2022/01/30 06:52:40;;;;;;;;;;;;;;;-139.48;100.00;61774.03;4955334;29;19969;-74
2022/01/30 06:55:24;;;;;;;;;;;;;;;-139.48;100.00;61774.03;4954227;29;20314;-74
2022/01/30 06:58:08;;;;;;;;;;;;;;;-139.48;100.00;61774.03;4954103;29;20305;-73
2022/01/30 07:00:52;;;;;;;;;;;;;;;-139.48;100.00;61774.03;4955295;29;19977;-72
2022/01/30 07:03:36;;;;;;;;;;;;;;;-139.48;100.00;61774.03;4954271;29;19925;-73
2022/01/30 07:06:20;;;;;;;;;;;;;;;-139.48;100.00;61774.03;4953931;29;19977;-73
2022/01/30 07:09:03;;;;;;;;;;;;;;;-139.48;100.00;61774.03;4940606;29;19989;-73
2022/01/30 07:11:47;;;;;;;;;;;;;;;-139.48;100.00;61774.03;4967807;28;19965;-74
2022/01/30 07:14:31;;;;;;;;;;;;;;;-139.48;100.00;61774.03;4954839;29;19926;-72
2022/01/30 07:17:15;;;;;;;;;;;;;;;-139.48;100.00;61774.03;4954077;29;19925;-73
2022/01/30 07:19:59;;;;;;;;;;;;;;;-139.48;100.00;61774.03;4955021;29;19950;-73
2022/01/30 07:22:43;;;;;;;;;;;;;;;-139.48;100.00;61774.03;4955298;29;20033;-72
2022/01/30 07:25:27;;;;;;;;;;;;;;;-139.48;100.00;61774.03;4954929;29;19977;-73
2022/01/30 07:28:11;;;;;;;;;;;;;;;-139.48;100.00;61774.03;4954818;29;19941;-74
2022/01/30 07:30:55;;;;;;;;;;;;;;;-139.48;100.00;61774.03;4955524;28;19924;-72
2022/01/30 07:33:40;;;;;;;;;;;;;;;-139.48;100.00;61774.03;4958908;29;19926;-73
2022/01/30 07:36:24;;;;;;;;;;;;;;;-139.48;100.00;61774.03;4958442;29;19974;-74
2022/01/30 07:39:08;;;;;;;;;;;;;;;-139.48;100.00;61774.03;4957409;29;19938;-73
2022/01/30 07:41:52;;;;;;;;;;;;;;;-139.48;100.00;61774.03;4957486;29;19925;-73
2022/01/30 07:44:36;;;;;;;;;;;;;;;-139.48;100.00;61774.03;4957384;29;19974;-74
2022/01/30 07:47:20;;;;;;;;;;;;;;;-139.48;100.00;61774.03;4958630;29;20382;-74
2022/01/30 07:50:04;;;;;;;;;;;;;;;-139.48;100.00;61774.03;4957468;29;20044;-73
2022/01/30 07:52:48;;;;;;;;;;;;;;;-139.48;100.00;61774.03;4957270;29;19926;-73
2022/01/30 07:55:32;;;;;;;;;;;;;;;-139.48;100.00;61774.03;4958424;29;19925;-74
2022/01/30 07:58:15;;;;;;;;;;;;;;;-139.48;100.00;61774.03;4958439;29;20295;-73
2022/01/30 08:01:00;;;;;;;;;;;;;;;-139.48;100.00;61774.03;4957294;29;20021;-74
2022/01/30 08:03:43;;;;;;;;;;;;;;;-139.48;100.00;61774.03;4957326;29;20036;-74
2022/01/30 08:06:27;;;;;;;;;;;;;;;-139.48;100.00;61774.03;4958558;29;19927;-73
2022/01/30 08:09:11;;;;;;;;;;;;;;;-139.48;100.00;61774.03;4956997;29;20314;-72
2022/01/30 08:11:55;;;;;;;;;;;;;;;-139.48;100.00;61774.03;4958464;29;19930;-72
2022/01/30 08:14:39;;;;;;;;;;;;;;;-139.48;100.00;61774.03;4957753;29;19970;-73
2022/01/30 08:17:23;;;;;;;;;;;;;;;-139.48;100.00;61774.03;4957608;29;20360;-73
2022/01/30 08:20:07;;;;;;;;;;;;;;;-139.48;100.00;61774.03;4958186;29;19930;-73
2022/01/30 08:22:52;;;;;;;;;;;;;;;-139.48;100.00;61774.03;4957529;29;19925;-74
2022/01/30 08:25:36;;;;;;;;;;;;;;;-139.48;100.00;61774.03;4956759;29;19925;-73
2022/01/30 08:28:20;;;;;;;;;;;;;;;-139.48;100.00;61774.03;4956959;29;20374;-73
2022/01/30 08:31:04;;;;;;;;;;;;;;;-139.48;100.00;61774.03;4957731;29;19929;-73
2022/01/30 08:33:48;;;;;;;;;;;;;;;-139.48;100.00;61774.03;4957785;29;19925;-73
2022/01/30 08:36:32;;;;;;;;;;;;;;;-139.48;100.00;61774.03;4957610;29;20300;-73
2022/01/30 08:39:15;;;;;;;;;;;;;;;-139.48;100.00;61774.03;4957627;29;20077;-73
2022/01/30 08:42:00;;;;;;;;;;;;;;;-139.48;100.00;61774.03;4956042;28;20287;-73
2022/01/30 08:44:44;;;;;;;;;;;;;;;-139.48;100.00;61774.03;4956815;29;19929;-74
2022/01/30 08:47:28;;;;;;;;;;;;;;;-139.48;100.00;61774.03;4956786;29;19993;-74
2022/01/30 08:50:12;;;;;;;;;;;;;;;-139.48;100.00;61774.03;4956491;29;19925;-73
2022/01/30 08:52:56;;;;;;;;;;;;;;;-139.48;100.00;61774.03;4957150;29;20243;-73
2022/01/30 08:55:40;;;;;;;;;;;;;;;-139.48;100.00;61774.03;4957198;29;20495;-72
2022/01/30 08:58:24;;;;;;;;;;;;;;;-139.48;100.00;61774.03;4956305;29;20397;-74
2022/01/30 09:01:08;;;;;;;;;;;;;;;-139.48;100.00;61774.03;4956258;29;19977;-74
2022/01/30 09:03:52;;;;;;;;;;;;;;;-139.48;100.00;61774.03;4957275;29;20319;-73
2022/01/30 09:06:38;;;;;;;;;;;;;;;-139.48;100.00;61774.03;4957939;29;20033;-73
2022/01/30 09:09:22;;;;;;;;;;;;;;;-139.48;100.00;61774.03;4956066;29;19978;-73
2022/01/30 09:12:06;;;;;;;;;;;;;;;-139.48;100.00;61774.03;4942290;29;19926;-73
2022/01/30 09:14:50;;;;;;;;;;;;;;;-139.48;100.00;61774.03;4955884;29;19977;-73
2022/01/30 09:17:34;;;;;;;;;;;;;;;-139.48;100.00;61774.03;4958236;29;19928;-72
2022/01/30 09:20:18;;;;;;;;;;;;;;;-139.48;100.00;61774.03;4966406;29;19930;-73
2022/01/30 09:23:02;;;;;;;;;;;;;;;-139.48;100.00;61774.03;4959614;29;20025;-72
2022/01/30 09:25:46;;;;;;;;;;;;;;;-139.48;100.00;61774.03;4955489;29;19925;-73
2022/01/30 09:28:30;;;;;;;;;;;;;;;-139.48;100.00;61774.03;4941997;29;19925;-73
2022/01/30 09:31:14;;;;;;;;;;;;;;;-139.48;100.00;61774.03;4956485;29;20058;-72
2022/01/30 09:33:58;;;;;;;;;;;;;;;-139.48;100.00;61774.03;4956717;29;19965;-72
2022/01/30 09:36:42;;;;;;;;;;;;;;;-139.48;100.00;61774.03;4942236;29;20379;-73
2022/01/30 09:39:26;;;;;;;;;;;;;;;-139.48;100.00;61774.03;4955263;29;19969;-74
2022/01/30 09:42:10;;;;;;;;;;;;;;;-139.48;100.00;61774.03;4956574;29;19969;-74
2022/01/30 09:44:58;;;;;;;;;;;;;;;-139.48;100.00;61774.03;4955143;29;19969;-74
2022/01/30 09:47:42;;;;;;;;;;;;;;;-139.48;100.00;61774.03;4955470;29;20238;-73
2022/01/30 09:50:26;;;;;;;;;;;;;;;-139.48;100.00;61774.03;4955336;29;19965;-76
2022/01/30 09:53:10;;;;;;;;;;;;;;;-139.48;100.00;61774.03;4955339;29;20247;-74
2022/01/30 09:55:54;;;;;;;;;;;;;;;-139.48;100.00;61774.03;4954838;29;19930;-74
2022/01/30 09:58:38;;;;;;;;;;;;;;;-139.48;100.00;61774.03;4956108;29;19926;-73
2022/01/30 10:01:22;;;;;;;;;;;;;;;-139.48;100.00;61774.03;4955514;29;19938;-72
2022/01/30 10:04:06;;;;;;;;;;;;;;;-139.48;100.00;61774.03;4941436;29;19924;-73
2022/01/30 10:06:59;;;;;;;;;;;;;;;-139.48;100.00;61774.03;4955111;29;20322;-73
2022/01/30 10:09:45;;;;;;;;;;;;;;;-139.48;100.00;61774.03;4954919;29;19941;-73
2022/01/30 10:12:30;;;;;;;;;;;;;;;-139.48;100.00;61774.03;4954642;29;20000;-74
2022/01/30 10:15:16;;;;;;;;;;;;;;;-139.48;100.00;61774.03;4955572;29;20396;-74
2022/01/30 10:18:01;;;;;;;;;;;;;;;-139.48;100.00;61774.03;4955612;29;20036;-74
2022/01/30 10:20:44;;;;;;;;;;;;;;;-139.48;100.00;61774.03;4954451;29;19954;-74
2022/01/30 10:23:35;;;;;;;;;;;;;;;-139.48;100.00;61774.03;4954764;29;19934;-73
2022/01/30 10:26:20;;;;;;;;;;;;;;;-139.48;100.00;61774.03;4954612;29;20065;-73
2022/01/30 10:29:24;;;;;;;;;;;;;;;-139.48;100.00;61774.03;4941132;29;19933;-75
2022/01/30 10:32:09;;;;;;;;;;;;;;;-139.48;100.00;61774.03;4955655;29;19969;-75
2022/01/30 10:35:03;;;;;;;;;;;;;;;-139.48;100.00;61774.03;4955302;29;19961;-73
2022/01/30 10:37:47;;;;;;;;;;;;;;;-139.48;100.00;61774.03;4954218;29;19926;-74
2022/01/30 10:40:36;;;;;;;;;;;;;;;-139.48;100.00;61774.03;4955811;29;20002;-74
2022/01/30 10:43:21;;;;;;;;;;;;;;;-139.48;100.00;61774.03;4954516;29;19953;-74
2022/01/30 10:46:37;;;;;;;;;;;;;;;-139.48;100.00;61774.03;4954350;29;19941;-75
2022/01/30 10:49:21;;;;;;;;;;;;;;;-139.48;100.00;61774.03;4951476;28;20405;-74
2022/01/30 10:52:06;;;;;;;;;;;;;;;-139.48;100.00;61774.03;4955474;29;20346;-73
2022/01/30 10:54:50;;;;;;;;;;;;;;;-139.48;100.00;61774.03;4954268;29;19925;-75
2022/01/30 10:57:40;;;;;;;;;;;;;;;-139.48;100.00;61774.03;4954056;29;19945;-75
2022/01/30 11:00:35;;;;;;;;;;;;;;;-139.48;100.00;61774.03;4953975;29;19985;-75
2022/01/30 11:03:38;;;;;;;;;;;;;;;-139.48;100.00;61774.03;4954041;29;19973;-74
2022/01/30 11:06:22;;;;;;;;;;;;;;;-139.48;100.00;61774.03;4953428;29;20009;-72
2022/01/30 11:09:06;;;;;;;;;;;;;;;-139.48;100.00;61774.03;4953981;29;19926;-74
2022/01/30 11:11:58;;;;;;;;;;;;;;;-139.48;100.00;61774.03;4954566;28;21270;-74
2022/01/30 11:17:32;;;;;;;;;;;;;;;-139.48;100.00;61774.03;4954287;29;20318;-73
2022/01/30 11:20:16;;;;;;;;;;;;;;;-139.48;100.00;61774.03;4953749;29;19929;-75
2022/01/30 11:23:01;;;;;;;;;;;;;;;-139.48;100.00;61774.03;4954061;29;20390;-75
2022/01/30 11:25:45;;;;;;;;;;;;;;;-139.48;100.00;61774.03;4955176;29;19973;-75
2022/01/30 11:28:29;;;;;;;;;;;;;;;-139.48;100.00;61774.03;4940251;29;19937;-73
2022/01/30 11:31:16;;;;;;;;;;;;;;;-139.48;100.00;61774.03;4955491;29;19926;-74
2022/01/30 11:34:00;;;;;;;;;;;;;;;-139.48;100.00;61774.03;4953896;29;19937;-74
2022/01/30 11:36:44;;;;;;;;;;;;;;;-139.48;100.00;61774.03;4954988;29;19928;-73
2022/01/30 11:39:28;;;;;;;;;;;;;;;-139.48;100.00;61774.03;4953873;29;19946;-74
2022/01/30 11:42:20;;;;;;;;;;;;;;;-139.48;100.00;61774.03;4953958;29;20025;-73
2022/01/30 11:45:07;;;;;;;;;;;;;;;-139.48;100.00;61774.03;4953414;29;19925;-72
2022/01/30 11:47:52;;;;;;;;;;;;;;;-139.48;100.00;61774.03;4953958;29;19929;-73
2022/01/30 11:50:36;;;;;;;;;;;;;;;-139.48;100.00;61774.03;4954656;29;19973;-74
2022/01/30 11:53:26;;;;;;;;;;;;;;;-139.48;100.00;61774.03;4953539;29;19925;-74
2022/01/30 11:56:10;;;;;;;;;;;;;;;-139.48;100.00;61774.03;4954493;29;19965;-73
2022/01/30 11:58:57;;;;;;;;;;;;;;;-139.48;100.00;61774.03;4953545;29;20399;-72
2022/01/30 12:01:41;;;;;;;;;;;;;;;-139.48;100.00;61774.03;4953600;29;20385;-74
2022/01/30 12:04:27;;;;;;;;;;;;;;;-139.48;100.00;61774.03;4953533;29;19969;-73
2022/01/30 12:07:30;;;;;;;;;;;;;;;-139.48;100.00;61774.03;4953693;29;19973;-73
2022/01/30 12:10:20;;;;;;;;;;;;;;;-139.48;100.00;61774.03;4953706;29;20386;-74
2022/01/30 12:13:06;;;;;;;;;;;;;;;-139.48;100.00;61774.03;4953701;29;20411;-72
2022/01/30 12:15:49;;;;;;;;;;;;;;;-139.48;100.00;61774.03;4953419;29;19979;-73
2022/01/30 12:18:43;;;;;;;;;;;;;;;-139.48;100.00;61774.03;4957325;28;19978;-74
2022/01/30 12:21:27;;;;;;;;;;;;;;;-139.48;100.00;61774.03;4958280;29;19929;-74
2022/01/30 12:24:20;;;;;;;;;;;;;;;-139.48;100.00;61774.03;4958131;29;19989;-73
2022/01/30 12:27:04;;;;;;;;;;;;;;;-139.48;100.00;61774.03;4957899;29;19945;-74
2022/01/30 12:29:52;;;;;;;;;;;;;;;-139.48;100.00;61774.03;4957851;29;19946;-73
2022/01/30 12:32:36;;;;;;;;;;;;;;;-139.48;100.00;61774.03;4943499;29;19925;-73
2022/01/30 12:35:20;;;;;;;;;;;;;;;-139.48;100.00;61774.03;4956444;29;19926;-73
2022/01/30 12:38:04;;;;;;;;;;;;;;;-139.48;100.00;61774.03;4956660;29;19973;-73
2022/01/30 12:40:48;;;;;;;;;;;;;;;-139.48;100.00;61774.03;4957391;29;19993;-74
2022/01/30 12:43:32;;;;;;;;;;;;;;;-139.48;100.00;61774.03;4956749;29;19930;-73
2022/01/30 12:46:15;;;;;;;;;;;;;;;-139.48;100.00;61774.03;4957170;29;19925;-73
2022/01/30 12:49:00;;;;;;;;;;;;;;;-139.48;100.00;61774.03;4942759;29;19973;-74
2022/01/30 12:51:48;;;;;;;;;;;;;;;-139.48;100.00;61774.03;4956198;29;20335;-73
2022/01/30 12:54:38;;;;;;;;;;;;;;;-139.48;100.00;61774.03;4956575;29;20021;-73
2022/01/30 12:57:22;;;;;;;;;;;;;;;-139.48;100.00;61774.03;4956529;29;19925;-73
2022/01/30 13:00:07;;;;;;;;;;;;;;;-139.48;100.00;61774.03;4957019;29;19941;-73
2022/01/30 13:02:55;;;;;;;;;;;;;;;-139.48;100.00;61774.03;4956063;29;19925;-74
2022/01/30 13:05:42;;;;;;;;;;;;;;;-139.48;100.00;61774.03;4943011;29;20066;-74
2022/01/30 13:08:43;;;;;;;;;;;;;;;-139.48;100.00;61774.03;4956221;29;20385;-73
2022/01/30 13:11:27;;;;;;;;;;;;;;;-139.48;100.00;61774.03;4956949;29;19965;-74
2022/01/30 13:14:11;;;;;;;;;;;;;;;-139.48;100.00;61774.03;4956788;29;19974;-74
2022/01/30 13:16:55;;;;;;;;;;;;;;;-139.48;100.00;61774.03;4956817;29;19926;-75
2022/01/30 13:19:40;;;;;;;;;;;;;;;-139.48;100.00;61774.03;4956593;29;19929;-74
2022/01/30 13:22:29;;;;;;;;;;;;;;;-139.48;100.00;61774.03;4956637;29;19950;-75
2022/01/30 13:25:14;;;;;;;;;;;;;;;-139.48;100.00;61774.03;4956765;29;19925;-73
2022/01/30 13:27:59;;;;;;;;;;;;;;;-139.48;100.00;61774.03;4955455;28;20354;-74
2022/01/30 13:30:43;;;;;;;;;;;;;;;-139.48;100.00;61774.03;4941828;29;19985;-74
2022/01/30 13:33:27;;;;;;;;;;;;;;;-139.48;100.00;61774.03;4956906;29;20259;-75
2022/01/30 13:36:23;;;;;;;;;;;;;;;-139.48;100.00;61774.03;4955351;29;20310;-74
2022/01/30 13:39:11;;;;;;;;;;;;;;;-139.48;100.00;61774.03;4955712;29;19969;-74
2022/01/30 13:42:13;;;;;;;;;;;;;;;-139.48;100.00;61774.03;4955438;29;20061;-75
2022/01/30 13:48:04;;;;;;;;;;;;;;;-139.48;100.00;61774.03;4955679;29;19995;-74
2022/01/30 13:50:53;;;;;;;;;;;;;;;-139.48;100.00;61774.03;4955156;29;19929;-75
2022/01/30 13:53:37;;;;;;;;;;;;;;;-139.48;100.00;61774.03;4954982;29;19925;-75
2022/01/30 13:56:22;;;;;;;;;;;;;;;-139.48;100.00;61774.03;4955910;29;19985;-75
2022/01/30 13:59:06;;;;;;;;;;;;;;;-139.48;100.00;61774.03;4955137;29;19941;-75
2022/01/30 14:02:02;;;;;;;;;;;;;;;-139.48;100.00;61774.03;4955181;29;20287;-74
2022/01/30 14:04:46;;;;;;;;;;;;;;;-139.48;100.00;61774.03;4955028;29;20373;-74
2022/01/30 14:07:30;;;;;;;;;;;;;;;-139.48;100.00;61774.03;4955732;29;19973;-75
2022/01/30 14:11:32;;;;;;;10.68;2.88;;;;;;;11.21;48.43;101736.59;5070481;28;20732;-74
2022/01/30 14:14:17;;;;;;;6.88;2.70;;;;;;;10.30;50.07;101747.66;5068988;28;20058;-72
2022/01/30 14:17:03;;;;;;;14.65;2.65;;;;;;;9.96;51.12;101754.53;5069763;28;20047;-73
2022/01/30 14:20:00;;;;;;;9.55;2.83;;;;;;;10.10;51.83;101743.84;5068940;28;20067;-72
2022/01/30 14:23:03;;;;;;;9.90;2.42;;;;;;;9.89;50.67;101758.59;5069644;28;20519;-68
2022/01/30 14:25:49;;;;;;;7.55;2.22;;;;;;;9.60;52.79;101749.88;5069877;28;20117;-62
2022/01/30 14:28:33;;;;;;;11.30;2.33;;;;;;;9.13;54.42;101743.31;5069972;28;20051;-73
2022/01/30 14:31:18;;;;;;;;;;;;;;;8.88;54.74;101749.34;5069042;28;20048;-73
2022/01/30 14:34:01;;;;;;;9.35;2.42;;;;;;;9.16;55.07;101743.97;5074974;22;19929;-70
2022/01/30 14:36:46;;;;;;;6.97;2.05;;;;;;;9.31;54.03;101752.75;5030341;28;20052;-71
2022/01/30 14:39:34;;;;;;;7.10;2.30;;;;;;;9.22;54.04;101751.56;5028735;28;20201;-70
2022/01/30 14:42:18;;;;;;;12.20;2.78;;;;;;;9.16;53.54;101748.47;5028611;28;20144;-70
2022/01/30 14:45:03;;;;;;;7.65;2.10;;;;;;;9.48;54.09;101741.88;5028438;28;20508;-70
2022/01/30 14:47:47;;;;;;;9.48;2.58;;;;;;;9.44;54.40;101738.56;5028901;28;20048;-70